Walker, Kentucky
Current Conditions -  °F | °C
As of 11:55 AM on Friday 28 Nov 2014 (Local Time) from KI35 Reporting Station
Clear Clear  
Wind Chill: 32°   Ceiling: Unl
Heat Index: 32°   Visibility: 10mi
Dew Point: 19°   Wind: 3mph
Humidity: 60%   Direction: 200°SSW
Pressure: 30.35"   Gusts: NA
Location:  36.89°N, 83.71°W
Report Text: KI35 281655Z AUTO 20003KT 10SM CLR 00/M07 A3035 RMK AO1
Loading
Personal Weather Stations






























Interactive Weather Map New forecast layout! Learn more

10-Day Weather Forecast

Advertisements
Track Severe Weather on mobile